Pagrindinis puslapis
METAR-TAF:

METAR-TAF

Oro uostai :

Emmen, Šveicarija

platuma: 47-05-32N, ilguma: 8-18-16E, Aukštis: 426 m

Dabartinis oras

Ataskaita buvo paskelbta 22 minutes, ne 09:20 UTC
Vėjas 2 kt nuo kintamojo kryptimis
Temperatūra 12°C
Drėgmė 62%
Slėgis 1026 hPa
Matomumas 10 km arba daugiau
nėra debesų žemiau 1500 m ir nėra kamuolinių lietaus debesų

METAR: LSME 200920Z VRB02KT CAVOK 12/05 Q1026 RMK BLU

Laikas: 11:42 (09:42 UTC)


TAF: trūkstamas

Orai ataskaitas ir orų prognozės (METAR, TAF).

turimą stotys yra geltonos ir raudonos taškus žemėlapyje.

Perkelti pele per norėdami pamatyti stoties vardą.

Tada spustelėkite, norėdami matyti oro stebėjimo ir prognozės.

Norėdami pakeisti žemėlapį: spustelėkite ant žalios mygtukų su juodo kryžiaus žemyn,; žalią mygtuką su brūkšneliu, jei norite nutolinti; arba žalių rodyklių gretimoms žemėlapius.


METAR-TAF: